createdAt,value
2017-07-06T00:00:21.992Z,0
2017-07-06T00:01:22.272Z,0
2017-07-06T00:02:21.972Z,0
2017-07-06T00:03:22.534Z,0
2017-07-06T00:04:22.503Z,0
2017-07-06T00:05:22.191Z,0
2017-07-06T00:06:21.873Z,0
2017-07-06T00:07:21.853Z,0
2017-07-06T00:08:22.170Z,0
2017-07-06T00:09:22.453Z,0
2017-07-06T00:10:22.431Z,0
2017-07-06T00:11:22.461Z,0
2017-07-06T00:12:22.103Z,0
2017-07-06T00:13:22.128Z,0
2017-07-06T00:14:21.761Z,0
2017-07-06T00:15:22.094Z,0
2017-07-06T00:16:21.861Z,0
2017-07-06T00:17:21.798Z,0
2017-07-06T00:18:21.692Z,0
2017-07-06T00:19:22.069Z,0
2017-07-06T00:20:21.681Z,0
2017-07-06T00:21:21.662Z,0
2017-07-06T00:22:21.960Z,0
2017-07-06T00:23:22.265Z,0
2017-07-06T00:24:21.660Z,0
2017-07-06T00:25:22.233Z,0
2017-07-06T00:26:22.300Z,0
2017-07-06T00:27:21.902Z,0
2017-07-06T00:28:21.577Z,0
2017-07-06T00:29:22.223Z,0
2017-07-06T00:30:21.885Z,0
2017-07-06T00:31:21.847Z,0
2017-07-06T00:32:21.829Z,0
2017-07-06T00:33:21.477Z,0
2017-07-06T00:34:21.791Z,0
2017-07-06T00:35:22.141Z,0
2017-07-06T00:36:22.059Z,0
2017-07-06T00:37:21.753Z,0
2017-07-06T00:38:21.738Z,0
2017-07-06T00:39:21.727Z,0
2017-07-06T00:40:21.729Z,0
2017-07-06T00:41:21.696Z,0
2017-07-06T00:42:21.372Z,0
2017-07-06T00:43:21.971Z,0
2017-07-06T00:44:21.014Z,0
2017-07-06T00:45:21.341Z,0
2017-07-06T00:46:21.321Z,0
2017-07-06T00:47:21.627Z,0
2017-07-06T00:48:21.587Z,0
2017-07-06T00:49:22.017Z,0
2017-07-06T00:50:21.891Z,0
2017-07-06T00:51:21.872Z,0
2017-07-06T00:52:21.541Z,0
2017-07-06T00:53:21.852Z,0
2017-07-06T00:54:21.814Z,0
2017-07-06T00:55:21.534Z,0
2017-07-06T00:56:21.823Z,0
2017-07-06T00:57:21.780Z,0
2017-07-06T00:58:21.772Z,0
2017-07-06T00:59:21.444Z,0
2017-07-06T01:00:21.469Z,0
2017-07-06T01:01:21.414Z,0
2017-07-06T01:02:21.734Z,0
2017-07-06T01:03:21.712Z,0
2017-07-06T01:04:21.711Z,0
2017-07-06T01:05:21.681Z,0
2017-07-06T01:06:21.657Z,0
2017-07-06T01:07:21.661Z,0
2017-07-06T01:08:21.633Z,0
2017-07-06T01:09:21.638Z,0
2017-07-06T01:10:21.598Z,0
2017-07-06T01:11:21.610Z,0
2017-07-06T01:12:21.257Z,0
2017-07-06T01:13:21.580Z,0
2017-07-06T01:14:21.543Z,0
2017-07-06T01:15:21.606Z,0
2017-07-06T01:16:21.196Z,0
2017-07-06T01:17:21.193Z,0
2017-07-06T01:18:21.491Z,0
2017-07-06T01:19:21.153Z,0
2017-07-06T01:20:21.462Z,0
2017-07-06T01:21:20.522Z,0
2017-07-06T01:22:21.122Z,0
2017-07-06T01:23:21.101Z,0
2017-07-06T01:24:21.082Z,0
2017-07-06T01:25:20.445Z,0
2017-07-06T01:26:20.742Z,0
2017-07-06T01:27:21.031Z,0
2017-07-06T01:28:21.035Z,0
2017-07-06T01:29:21.020Z,0
2017-07-06T01:30:21.324Z,0
2017-07-06T01:31:20.998Z,0
2017-07-06T01:32:20.990Z,0
2017-07-06T01:33:21.279Z,0
2017-07-06T01:34:20.944Z,0
2017-07-06T01:35:21.264Z,0
2017-07-06T01:36:21.226Z,0
2017-07-06T01:37:21.202Z,0
2017-07-06T01:38:20.667Z,0
2017-07-06T01:39:20.859Z,0
2017-07-06T01:40:21.176Z,0
2017-07-06T01:41:20.830Z,0
2017-07-06T01:42:21.148Z,0
2017-07-06T01:43:20.825Z,0
2017-07-06T01:44:20.796Z,0
2017-07-06T01:45:20.472Z,0
2017-07-06T01:46:20.755Z,0
2017-07-06T01:47:20.436Z,0
2017-07-06T01:48:20.436Z,0
2017-07-06T01:49:20.410Z,0
2017-07-06T01:50:20.737Z,0
2017-07-06T01:51:20.702Z,0
2017-07-06T01:52:20.675Z,0
2017-07-06T01:53:20.662Z,0
2017-07-06T01:54:20.362Z,0
2017-07-06T01:55:20.338Z,0
2017-07-06T01:56:20.439Z,0
2017-07-06T01:57:20.380Z,0
2017-07-06T01:58:19.971Z,0
2017-07-06T01:59:20.924Z,0
2017-07-06T02:00:20.603Z,0
2017-07-06T02:01:20.262Z,0
2017-07-06T02:02:20.621Z,0
2017-07-06T02:03:20.582Z,0
2017-07-06T02:04:20.242Z,0
2017-07-06T02:05:20.493Z,0
2017-07-06T02:06:20.823Z,0
2017-07-06T02:07:20.451Z,0
2017-07-06T02:08:20.144Z,0
2017-07-06T02:09:20.141Z,0
2017-07-06T02:10:20.433Z,0
2017-07-06T02:11:20.085Z,0
2017-07-06T02:12:20.189Z,0
2017-07-06T02:13:19.831Z,0
2017-07-06T02:14:20.414Z,0
2017-07-06T02:15:20.671Z,0
2017-07-06T02:16:20.335Z,0
2017-07-06T02:17:20.734Z,0
2017-07-06T02:18:19.990Z,0
2017-07-06T02:19:20.660Z,0
2017-07-06T02:20:20.278Z,0
2017-07-06T02:21:20.609Z,0
2017-07-06T02:22:19.931Z,0
2017-07-06T02:23:19.933Z,0
2017-07-06T02:24:20.231Z,0
2017-07-06T02:25:20.211Z,0
2017-07-06T02:26:20.181Z,0
2017-07-06T02:27:19.851Z,0
2017-07-06T02:28:20.139Z,0
2017-07-06T02:29:20.093Z,0
2017-07-06T02:30:20.471Z,0
2017-07-06T02:31:19.805Z,0
2017-07-06T02:32:19.471Z,0
2017-07-06T02:33:20.088Z,0
2017-07-06T02:34:20.061Z,0
2017-07-06T02:35:20.381Z,0
2017-07-06T02:36:20.038Z,0
2017-07-06T02:37:19.406Z,0
2017-07-06T02:38:20.002Z,0
2017-07-06T02:39:20.040Z,0
2017-07-06T02:40:19.662Z,0
2017-07-06T02:41:19.955Z,4
2017-07-06T02:42:19.952Z,4
2017-07-06T02:43:20.232Z,0
2017-07-06T02:44:20.242Z,0
2017-07-06T02:45:19.580Z,4
2017-07-06T02:46:19.881Z,4
2017-07-06T02:47:19.874Z,0
2017-07-06T02:48:19.859Z,4
2017-07-06T02:49:20.167Z,4
2017-07-06T02:50:19.530Z,4
2017-07-06T02:51:19.831Z,4
2017-07-06T02:52:19.492Z,4
2017-07-06T02:53:19.471Z,8
2017-07-06T02:54:20.102Z,8
2017-07-06T02:55:19.433Z,8
2017-07-06T02:56:19.742Z,12
2017-07-06T02:57:19.730Z,12
2017-07-06T02:58:19.781Z,12
2017-07-06T02:59:19.718Z,12
2017-07-06T03:00:19.781Z,16
2017-07-06T03:01:19.974Z,16
2017-07-06T03:02:19.654Z,20
2017-07-06T03:03:19.624Z,20
2017-07-06T03:04:19.934Z,20
2017-07-06T03:05:19.631Z,24
2017-07-06T03:06:19.895Z,28
2017-07-06T03:07:19.272Z,28
2017-07-06T03:08:19.550Z,32
2017-07-06T03:09:19.552Z,32
2017-07-06T03:10:19.851Z,36
2017-07-06T03:11:19.821Z,40
2017-07-06T03:12:19.188Z,44
2017-07-06T03:13:19.181Z,48
2017-07-06T03:14:19.470Z,48
2017-07-06T03:15:19.459Z,52
2017-07-06T03:16:19.444Z,60
2017-07-06T03:17:19.431Z,60
2017-07-06T03:18:19.106Z,64
2017-07-06T03:19:19.714Z,68
2017-07-06T03:20:19.391Z,76
2017-07-06T03:21:19.051Z,76
2017-07-06T03:22:19.673Z,80
2017-07-06T03:23:19.333Z,84
2017-07-06T03:24:19.010Z,92
2017-07-06T03:25:19.759Z,92
2017-07-06T03:26:19.303Z,100
2017-07-06T03:27:19.277Z,100
2017-07-06T03:28:19.250Z,104
2017-07-06T03:29:19.600Z,112
2017-07-06T03:30:19.234Z,112
2017-07-06T03:31:19.221Z,116
2017-07-06T03:32:19.211Z,124
2017-07-06T03:33:19.502Z,128
2017-07-06T03:34:19.491Z,132
2017-07-06T03:35:19.491Z,140
2017-07-06T03:36:18.829Z,148
2017-07-06T03:37:19.172Z,156
2017-07-06T03:38:19.416Z,168
2017-07-06T03:39:19.431Z,180
2017-07-06T03:40:19.397Z,188
2017-07-06T03:41:19.061Z,196
2017-07-06T03:42:18.785Z,208
2017-07-06T03:43:19.341Z,224
2017-07-06T03:44:19.343Z,232
2017-07-06T03:45:19.106Z,252
2017-07-06T03:46:18.990Z,264
2017-07-06T03:47:18.990Z,280
2017-07-06T03:48:18.969Z,288
2017-07-06T03:49:18.620Z,300
2017-07-06T03:50:18.916Z,312
2017-07-06T03:51:19.257Z,324
2017-07-06T03:52:18.890Z,340
2017-07-06T03:53:18.580Z,356
2017-07-06T03:54:18.883Z,368
2017-07-06T03:55:18.606Z,388
2017-07-06T03:56:18.840Z,400
2017-07-06T03:57:19.145Z,420
2017-07-06T03:58:18.799Z,440
2017-07-06T03:59:19.131Z,456
2017-07-06T04:00:18.771Z,484
2017-07-06T04:01:18.776Z,504
2017-07-06T04:02:18.745Z,536
2017-07-06T04:03:18.776Z,572
2017-07-06T04:04:18.451Z,600
2017-07-06T04:05:19.009Z,624
2017-07-06T04:06:18.711Z,644
2017-07-06T04:07:18.754Z,668
2017-07-06T04:08:18.972Z,688
2017-07-06T04:09:18.680Z,712
2017-07-06T04:10:18.318Z,732
2017-07-06T04:11:18.295Z,752
2017-07-06T04:12:18.636Z,768
2017-07-06T04:13:18.644Z,788
2017-07-06T04:14:18.606Z,804
2017-07-06T04:15:18.549Z,828
2017-07-06T04:16:18.851Z,848
2017-07-06T04:17:18.840Z,876
2017-07-06T04:18:18.526Z,900
2017-07-06T04:19:18.477Z,928
2017-07-06T04:20:18.805Z,952
2017-07-06T04:21:18.785Z,976
2017-07-06T04:22:18.440Z,1004
2017-07-06T04:23:17.849Z,1028
2017-07-06T04:24:18.116Z,1056
2017-07-06T04:25:18.410Z,1084
2017-07-06T04:26:18.379Z,1116
2017-07-06T04:27:18.705Z,1148
2017-07-06T04:28:18.360Z,1180
2017-07-06T04:29:18.320Z,1204
2017-07-06T04:30:18.007Z,1224
2017-07-06T04:31:18.366Z,1236
2017-07-06T04:32:18.340Z,1240
2017-07-06T04:33:17.962Z,1240
2017-07-06T04:34:18.275Z,1248
2017-07-06T04:35:18.250Z,1256
2017-07-06T04:36:18.234Z,1272
2017-07-06T04:37:17.999Z,1288
2017-07-06T04:38:18.205Z,1308
2017-07-06T04:39:18.241Z,1328
2017-07-06T04:40:17.857Z,1352
2017-07-06T04:41:17.880Z,1380
2017-07-06T04:42:17.829Z,1396
2017-07-06T04:43:18.133Z,1432
2017-07-06T04:44:18.434Z,1464
2017-07-06T04:45:17.470Z,1488
2017-07-06T04:46:18.400Z,1496
2017-07-06T04:47:18.370Z,1504
2017-07-06T04:48:17.741Z,1524
2017-07-06T04:49:17.890Z,1564
2017-07-06T04:50:17.718Z,1600
2017-07-06T04:51:18.151Z,1640
2017-07-06T04:52:17.677Z,1680
2017-07-06T04:53:17.977Z,1720
2017-07-06T04:54:17.650Z,1764
2017-07-06T04:55:17.689Z,1800
2017-07-06T04:56:17.611Z,1832
2017-07-06T04:57:17.897Z,1860
2017-07-06T04:58:18.214Z,1880
2017-07-06T04:59:18.186Z,1904
2017-07-06T05:00:17.890Z,1940
2017-07-06T05:01:17.862Z,1976
2017-07-06T05:02:18.150Z,2020
2017-07-06T05:03:18.140Z,2068
2017-07-06T05:04:18.131Z,2112
2017-07-06T05:05:17.484Z,2148
2017-07-06T05:06:17.789Z,2176
2017-07-06T05:07:18.080Z,2208
2017-07-06T05:08:18.071Z,2244
2017-07-06T05:09:17.742Z,2292
2017-07-06T05:10:17.747Z,2348
2017-07-06T05:11:17.706Z,2404
2017-07-06T05:12:18.001Z,2452
2017-07-06T05:13:18.004Z,2476
2017-07-06T05:14:17.350Z,2496
2017-07-06T05:15:17.641Z,2504
2017-07-06T05:16:17.323Z,2524
2017-07-06T05:17:17.937Z,2552
2017-07-06T05:18:17.601Z,2584
2017-07-06T05:19:17.273Z,2620
2017-07-06T05:20:17.638Z,2656
2017-07-06T05:21:17.562Z,2692
2017-07-06T05:22:17.585Z,2700
2017-07-06T05:23:17.520Z,2712
2017-07-06T05:24:17.828Z,2728
2017-07-06T05:25:17.515Z,2704
2017-07-06T05:26:17.493Z,2656
2017-07-06T05:27:17.460Z,2644
2017-07-06T05:28:17.130Z,2604
2017-07-06T05:29:16.818Z,2568
2017-07-06T05:30:17.742Z,2668
2017-07-06T05:31:17.720Z,2792
2017-07-06T05:32:17.446Z,2864
2017-07-06T05:33:17.388Z,2920
2017-07-06T05:34:17.056Z,2964
2017-07-06T05:35:17.340Z,3000
2017-07-06T05:36:17.035Z,3032
2017-07-06T05:37:17.339Z,3060
2017-07-06T05:38:17.012Z,3088
2017-07-06T05:39:16.981Z,3116
2017-07-06T05:40:17.289Z,3152
2017-07-06T05:41:17.678Z,3196
2017-07-06T05:42:17.266Z,3240
2017-07-06T05:43:17.230Z,3276
2017-07-06T05:44:17.589Z,3300
2017-07-06T05:45:17.224Z,3312
2017-07-06T05:46:17.573Z,3320
2017-07-06T05:47:17.497Z,3316
2017-07-06T05:48:17.549Z,3320
2017-07-06T05:49:17.158Z,3360
2017-07-06T05:50:16.840Z,3384
2017-07-06T05:51:17.179Z,3384
2017-07-06T05:52:17.210Z,3384
2017-07-06T05:53:17.111Z,3396
2017-07-06T05:54:17.193Z,3408
2017-07-06T05:55:17.131Z,3416
2017-07-06T05:56:16.783Z,3440
2017-07-06T05:57:17.050Z,3504
2017-07-06T05:58:17.042Z,3596
2017-07-06T05:59:17.021Z,3680
2017-07-06T06:00:17.059Z,3744
2017-07-06T06:01:16.981Z,3796
2017-07-06T06:02:17.330Z,3816
2017-07-06T06:03:16.639Z,3820
2017-07-06T06:04:16.938Z,3832
2017-07-06T06:05:16.624Z,3852
2017-07-06T06:06:16.978Z,3884
2017-07-06T06:07:16.901Z,3888
2017-07-06T06:08:16.888Z,3880
2017-07-06T06:09:17.230Z,3880
2017-07-06T06:10:16.870Z,3900
2017-07-06T06:11:17.156Z,3924
2017-07-06T06:12:16.900Z,3968
2017-07-06T06:13:16.892Z,3996
2017-07-06T06:14:17.122Z,4016
2017-07-06T06:15:16.791Z,4040
2017-07-06T06:16:17.076Z,4072
2017-07-06T06:17:17.089Z,4104
2017-07-06T06:18:17.059Z,4124
2017-07-06T06:19:17.050Z,4160
2017-07-06T06:20:17.029Z,4204
2017-07-06T06:21:16.722Z,4236
2017-07-06T06:22:16.681Z,4264
2017-07-06T06:23:17.255Z,4292
2017-07-06T06:24:17.469Z,4320
2017-07-06T06:25:17.418Z,4340
2017-07-06T06:26:16.704Z,4372
2017-07-06T06:27:16.669Z,4400
2017-07-06T06:28:17.383Z,4436
2017-07-06T06:29:17.383Z,4472
2017-07-06T06:30:16.646Z,4496
2017-07-06T06:31:16.971Z,4524
2017-07-06T06:32:16.940Z,4552
2017-07-06T06:33:16.538Z,4576
2017-07-06T06:34:17.385Z,4592
2017-07-06T06:35:16.592Z,4612
2017-07-06T06:36:16.934Z,4624
2017-07-06T06:37:16.530Z,4664
2017-07-06T06:38:16.525Z,4688
2017-07-06T06:39:16.460Z,4708
2017-07-06T06:40:16.753Z,4728
2017-07-06T06:41:16.761Z,4748
2017-07-06T06:42:16.181Z,4772
2017-07-06T06:43:16.480Z,4800
2017-07-06T06:44:16.069Z,4824
2017-07-06T06:45:16.680Z,4864
2017-07-06T06:46:16.371Z,4920
2017-07-06T06:47:16.674Z,4980
2017-07-06T06:48:16.332Z,5040
2017-07-06T06:49:16.630Z,5100
2017-07-06T06:50:16.623Z,5148
2017-07-06T06:51:16.344Z,5184
2017-07-06T06:52:16.597Z,5232
2017-07-06T06:53:16.593Z,5284
2017-07-06T06:54:16.601Z,5324
2017-07-06T06:55:16.301Z,5364
2017-07-06T06:56:16.569Z,5388
2017-07-06T06:57:16.238Z,5420
2017-07-06T06:58:16.207Z,5448
2017-07-06T06:59:16.509Z,5488
2017-07-06T07:00:16.186Z,5532
2017-07-06T07:01:16.490Z,5584
2017-07-06T07:02:16.158Z,5616
2017-07-06T07:03:15.829Z,5680
2017-07-06T07:04:15.924Z,5656
2017-07-06T07:05:16.500Z,5696
2017-07-06T07:06:16.263Z,5720
2017-07-06T07:07:16.094Z,5740
2017-07-06T07:08:16.498Z,5780
2017-07-06T07:09:15.739Z,5872
2017-07-06T07:10:15.737Z,5952
2017-07-06T07:11:15.743Z,6028
2017-07-06T07:12:15.709Z,6084
2017-07-06T07:13:16.027Z,6152
2017-07-06T07:14:15.692Z,6184
2017-07-06T07:15:16.003Z,6220
2017-07-06T07:16:15.659Z,6244
2017-07-06T07:17:16.053Z,6288
2017-07-06T07:18:15.950Z,6340
2017-07-06T07:19:15.953Z,6392
2017-07-06T07:20:15.930Z,6432
2017-07-06T07:21:15.924Z,6480
2017-07-06T07:22:15.593Z,6532
2017-07-06T07:23:16.216Z,6584
2017-07-06T07:24:15.557Z,6564
2017-07-06T07:25:15.563Z,6576
2017-07-06T07:26:15.554Z,6596
2017-07-06T07:27:16.220Z,6616
2017-07-06T07:28:16.164Z,6616
2017-07-06T07:29:15.502Z,6644
2017-07-06T07:30:15.484Z,6720
2017-07-06T07:31:15.792Z,6796
2017-07-06T07:32:16.086Z,6888
2017-07-06T07:33:15.792Z,6980
2017-07-06T07:34:16.068Z,7076
2017-07-06T07:35:15.741Z,6976
2017-07-06T07:36:16.057Z,6660
2017-07-06T07:37:15.742Z,7068
2017-07-06T07:38:15.710Z,7168
2017-07-06T07:39:15.690Z,7276
2017-07-06T07:40:15.693Z,7284
2017-07-06T07:41:15.370Z,7200
2017-07-06T07:42:15.341Z,7312
2017-07-06T07:43:15.641Z,7272
2017-07-06T07:44:15.937Z,7252
2017-07-06T07:45:15.629Z,7312
2017-07-06T07:46:15.638Z,7348
2017-07-06T07:47:15.592Z,7436
2017-07-06T07:48:15.598Z,7484
2017-07-06T07:49:15.582Z,7516
2017-07-06T07:50:15.892Z,7532
2017-07-06T07:51:15.240Z,7424
2017-07-06T07:52:15.229Z,7420
2017-07-06T07:53:15.527Z,7460
2017-07-06T07:54:15.830Z,7492
2017-07-06T07:55:15.500Z,7544
2017-07-06T07:56:15.510Z,7660
2017-07-06T07:57:15.487Z,7784
2017-07-06T07:58:15.472Z,7856
2017-07-06T07:59:15.759Z,7856
2017-07-06T08:00:15.774Z,7920
2017-07-06T08:01:15.120Z,7500
2017-07-06T08:02:15.440Z,7668
2017-07-06T08:03:15.413Z,7976
2017-07-06T08:04:15.734Z,8136
2017-07-06T08:05:15.725Z,8084
2017-07-06T08:06:15.733Z,8140
2017-07-06T08:07:15.130Z,8240
2017-07-06T08:08:15.359Z,8300
2017-07-06T08:09:15.361Z,8328
2017-07-06T08:10:15.655Z,8344
2017-07-06T08:11:15.670Z,8364
2017-07-06T08:12:15.336Z,8392
2017-07-06T08:13:14.681Z,8444
2017-07-06T08:14:15.304Z,8464
2017-07-06T08:15:15.613Z,8476
2017-07-06T08:16:15.604Z,8464
2017-07-06T08:17:14.951Z,8464
2017-07-06T08:18:15.056Z,8436
2017-07-06T08:19:15.611Z,8432
2017-07-06T08:20:15.341Z,8460
2017-07-06T08:21:15.241Z,8492
2017-07-06T08:22:14.953Z,8356
2017-07-06T08:23:15.659Z,8004
2017-07-06T08:24:15.551Z,8380
2017-07-06T08:25:15.178Z,8444
2017-07-06T08:26:15.239Z,8456
2017-07-06T08:27:14.850Z,8492
2017-07-06T08:28:15.162Z,8496
2017-07-06T08:29:15.162Z,8528
2017-07-06T08:30:14.841Z,8556
2017-07-06T08:31:15.119Z,8552
2017-07-06T08:32:15.441Z,8548
2017-07-06T08:33:15.411Z,8524
2017-07-06T08:34:15.111Z,8500
2017-07-06T08:35:14.820Z,8496
2017-07-06T08:36:15.113Z,8532
2017-07-06T08:37:15.056Z,8552
2017-07-06T08:38:15.391Z,8580
2017-07-06T08:39:15.081Z,8588
2017-07-06T08:40:15.367Z,8600
2017-07-06T08:41:15.332Z,8624
2017-07-06T08:42:15.021Z,8656
2017-07-06T08:43:15.340Z,8696
2017-07-06T08:44:15.018Z,8724
2017-07-06T08:45:15.310Z,8724
2017-07-06T08:46:14.680Z,8728
2017-07-06T08:47:15.301Z,8736
2017-07-06T08:48:15.283Z,8768
2017-07-06T08:49:14.673Z,8752
2017-07-06T08:50:14.990Z,8748
2017-07-06T08:51:14.731Z,8736
2017-07-06T08:52:14.610Z,8740
2017-07-06T08:53:14.950Z,8764
2017-07-06T08:54:15.221Z,8796
2017-07-06T08:55:15.115Z,8832
2017-07-06T08:56:14.892Z,8876
2017-07-06T08:57:14.902Z,8924
2017-07-06T08:58:14.891Z,9040
2017-07-06T08:59:15.000Z,9108
2017-07-06T09:00:15.011Z,9140
2017-07-06T09:01:15.159Z,9120
2017-07-06T09:02:14.520Z,9096
2017-07-06T09:03:14.611Z,9104
2017-07-06T09:04:14.884Z,9124
2017-07-06T09:05:14.831Z,9136
2017-07-06T09:06:14.830Z,9180
2017-07-06T09:07:15.224Z,9520
2017-07-06T09:08:15.211Z,10196
2017-07-06T09:09:14.571Z,10408
2017-07-06T09:10:14.789Z,10760
2017-07-06T09:11:15.212Z,14944
2017-07-06T09:12:14.452Z,21696
2017-07-06T09:13:14.805Z,30464
2017-07-06T09:14:15.103Z,41088
2017-07-06T09:15:14.744Z,49248
2017-07-06T09:16:15.121Z,55552
2017-07-06T09:17:14.706Z,62720
2017-07-06T09:18:14.845Z,70848
2017-07-06T09:19:14.700Z,74848
2017-07-06T09:20:14.671Z,74368
2017-07-06T09:21:15.033Z,75040
2017-07-06T09:22:14.693Z,69472
2017-07-06T09:23:14.650Z,70528
2017-07-06T09:24:15.001Z,72512
2017-07-06T09:25:14.670Z,68224
2017-07-06T09:26:14.651Z,68544
2017-07-06T09:27:14.643Z,68192
2017-07-06T09:28:14.665Z,68096
2017-07-06T09:29:14.938Z,72192
2017-07-06T09:30:14.305Z,70848
2017-07-06T09:31:14.703Z,71808
2017-07-06T09:32:14.291Z,72128
2017-07-06T09:33:14.303Z,67456
2017-07-06T09:34:14.706Z,68320
2017-07-06T09:35:14.594Z,68416
2017-07-06T09:36:14.592Z,65792
2017-07-06T09:37:14.624Z,70144
2017-07-06T09:38:14.652Z,67872
2017-07-06T09:39:14.565Z,68096
2017-07-06T09:40:14.323Z,71552
2017-07-06T09:41:14.560Z,69952
2017-07-06T09:42:14.352Z,66400
2017-07-06T09:43:14.224Z,63584
2017-07-06T09:44:14.651Z,60096
2017-07-06T09:45:14.551Z,63392
2017-07-06T09:46:14.913Z,62016
2017-07-06T09:47:14.842Z,61344
2017-07-06T09:48:14.531Z,62432
2017-07-06T09:49:14.199Z,59904
2017-07-06T09:50:14.503Z,61408
2017-07-06T09:51:14.191Z,61888
2017-07-06T09:52:14.553Z,62144
2017-07-06T09:53:14.804Z,61952
2017-07-06T09:54:14.504Z,61184
2017-07-06T09:55:14.505Z,56000
2017-07-06T09:56:14.501Z,31008
2017-07-06T09:57:14.818Z,52096
2017-07-06T09:58:14.782Z,56576
2017-07-06T09:59:14.496Z,55424
2017-07-06T10:00:14.521Z,51552
2017-07-06T10:01:14.572Z,58176
2017-07-06T10:02:14.489Z,58144
2017-07-06T10:03:14.469Z,50688
2017-07-06T10:04:14.805Z,49280
2017-07-06T10:05:14.462Z,54208
2017-07-06T10:06:14.761Z,54112
2017-07-06T10:07:14.462Z,51072
2017-07-06T10:08:14.445Z,51136
2017-07-06T10:09:14.780Z,50848
2017-07-06T10:10:14.571Z,49280
2017-07-06T10:11:14.471Z,50816
2017-07-06T10:12:14.471Z,51200
2017-07-06T10:13:14.755Z,52288
2017-07-06T10:14:14.853Z,51456
2017-07-06T10:15:14.794Z,49472
2017-07-06T10:16:14.181Z,46208
2017-07-06T10:17:14.430Z,42144
2017-07-06T10:18:14.429Z,42176
2017-07-06T10:19:14.788Z,44960
2017-07-06T10:20:14.417Z,44736
2017-07-06T10:21:14.431Z,42368
2017-07-06T10:22:14.417Z,39552
2017-07-06T10:23:14.404Z,39936
2017-07-06T10:24:14.411Z,40736
2017-07-06T10:25:14.712Z,42240
2017-07-06T10:26:14.699Z,41024
2017-07-06T10:27:14.399Z,38560
2017-07-06T10:28:14.738Z,40032
2017-07-06T10:29:14.699Z,35360
2017-07-06T10:30:14.381Z,20864
2017-07-06T10:31:14.689Z,9600
2017-07-06T10:32:14.678Z,8784
2017-07-06T10:33:14.045Z,8576
2017-07-06T10:34:14.680Z,8556
2017-07-06T10:35:14.673Z,8468
2017-07-06T10:36:14.679Z,8476
2017-07-06T10:37:14.670Z,8372
2017-07-06T10:38:14.341Z,8356
2017-07-06T10:39:14.453Z,8328
2017-07-06T10:40:14.358Z,8344
2017-07-06T10:41:14.471Z,8348
2017-07-06T10:42:14.679Z,8216
2017-07-06T10:43:14.688Z,8224
2017-07-06T10:44:14.444Z,8128
2017-07-06T10:45:14.737Z,8004
2017-07-06T10:46:14.331Z,7924
2017-07-06T10:47:14.629Z,7896
2017-07-06T10:48:14.629Z,8032
2017-07-06T10:49:14.700Z,8124
2017-07-06T10:50:14.617Z,8048
2017-07-06T10:51:14.091Z,8112
2017-07-06T10:52:14.631Z,8092
2017-07-06T10:53:14.632Z,8056
2017-07-06T10:54:14.674Z,7944
2017-07-06T10:55:14.578Z,8036
2017-07-06T10:56:14.252Z,8068
2017-07-06T10:57:14.250Z,8120
2017-07-06T10:58:14.251Z,8084
2017-07-06T10:59:14.577Z,8032
2017-07-06T11:00:14.553Z,8032
2017-07-06T11:01:14.536Z,7904
2017-07-06T11:02:14.251Z,7816
2017-07-06T11:03:14.549Z,7832
2017-07-06T11:04:14.554Z,7768
2017-07-06T11:05:14.533Z,3024
2017-07-06T11:06:14.522Z,2976
2017-07-06T11:07:14.497Z,2836
2017-07-06T11:08:14.498Z,2716
2017-07-06T11:09:13.866Z,2652
2017-07-06T11:10:13.908Z,2632
2017-07-06T11:11:14.175Z,2604
2017-07-06T11:12:13.871Z,2600
2017-07-06T11:13:14.484Z,2584
2017-07-06T11:14:14.484Z,2568
2017-07-06T11:15:14.445Z,2536
2017-07-06T11:16:14.124Z,2548
2017-07-06T11:17:14.177Z,2544
2017-07-06T11:18:14.451Z,2532
2017-07-06T11:19:14.127Z,2512
2017-07-06T11:20:14.130Z,2516
2017-07-06T11:21:14.120Z,2512
2017-07-06T11:22:14.423Z,2524
2017-07-06T11:23:13.761Z,2500
2017-07-06T11:24:13.462Z,2504
2017-07-06T11:25:14.475Z,2516
2017-07-06T11:26:14.402Z,2484
2017-07-06T11:27:14.399Z,2508
2017-07-06T11:28:14.050Z,2472
2017-07-06T11:29:14.046Z,2500
2017-07-06T11:30:14.039Z,2496
2017-07-06T11:31:14.031Z,2464
2017-07-06T11:32:14.396Z,2424
2017-07-06T11:33:14.329Z,2452
2017-07-06T11:34:14.408Z,2456
2017-07-06T11:35:14.398Z,2424
2017-07-06T11:36:14.338Z,2464
2017-07-06T11:37:14.311Z,2472
2017-07-06T11:38:13.993Z,2488
2017-07-06T11:39:13.646Z,2512
2017-07-06T11:40:14.298Z,2528
2017-07-06T11:41:13.963Z,2524
2017-07-06T11:42:14.281Z,2500
2017-07-06T11:43:13.321Z,2472
2017-07-06T11:44:14.278Z,2372
2017-07-06T11:45:14.276Z,2440
2017-07-06T11:46:14.235Z,2444
2017-07-06T11:47:14.253Z,2408
2017-07-06T11:48:14.245Z,2424
2017-07-06T11:49:14.207Z,2416
2017-07-06T11:50:13.581Z,2452
2017-07-06T11:51:13.890Z,2448
2017-07-06T11:52:13.921Z,2424
2017-07-06T11:53:13.887Z,2408
2017-07-06T11:54:13.890Z,2400
2017-07-06T11:55:14.179Z,2404
2017-07-06T11:56:14.179Z,2396
2017-07-06T11:57:14.176Z,2380
2017-07-06T11:58:13.897Z,2432
2017-07-06T11:59:13.527Z,2432
2017-07-06T12:00:14.131Z,2412
2017-07-06T12:01:14.138Z,2448
2017-07-06T12:02:13.500Z,2436
2017-07-06T12:03:14.114Z,2428
2017-07-06T12:04:14.146Z,2404
2017-07-06T12:05:13.787Z,2416
2017-07-06T12:06:13.793Z,2388
2017-07-06T12:07:14.126Z,2384
2017-07-06T12:08:14.079Z,2384
2017-07-06T12:09:14.086Z,2388
2017-07-06T12:10:14.086Z,2380
2017-07-06T12:11:13.765Z,2412
2017-07-06T12:12:14.045Z,2388
2017-07-06T12:13:13.410Z,2412
2017-07-06T12:14:14.053Z,2364
2017-07-06T12:15:14.055Z,2368
2017-07-06T12:16:14.021Z,2424
2017-07-06T12:17:14.020Z,2360
2017-07-06T12:18:13.712Z,2368
2017-07-06T12:19:14.013Z,2396
2017-07-06T12:20:14.001Z,2340
2017-07-06T12:21:13.991Z,2368
2017-07-06T12:22:13.677Z,2324
2017-07-06T12:23:13.991Z,2316
2017-07-06T12:24:13.674Z,2284
2017-07-06T12:25:13.389Z,2260
2017-07-06T12:26:13.661Z,2244
2017-07-06T12:27:13.978Z,2272
2017-07-06T12:28:13.649Z,2236
2017-07-06T12:29:13.335Z,2280
2017-07-06T12:30:13.052Z,2268
2017-07-06T12:31:13.926Z,2236
2017-07-06T12:32:13.641Z,2248
2017-07-06T12:33:13.306Z,2232
2017-07-06T12:34:13.601Z,2168
2017-07-06T12:35:13.299Z,2200
2017-07-06T12:36:13.292Z,2212
2017-07-06T12:37:13.577Z,2132
2017-07-06T12:38:12.945Z,2188
2017-07-06T12:39:13.275Z,2136
2017-07-06T12:40:13.253Z,2168
2017-07-06T12:41:13.253Z,2140
2017-07-06T12:42:13.884Z,2132
2017-07-06T12:43:13.555Z,2104
2017-07-06T12:44:13.845Z,2084
2017-07-06T12:45:13.570Z,2084
2017-07-06T12:46:13.518Z,2092
2017-07-06T12:47:13.824Z,2084
2017-07-06T12:48:13.493Z,2064
2017-07-06T12:49:13.552Z,2064
2017-07-06T12:50:13.194Z,2056
2017-07-06T12:51:13.488Z,2088
2017-07-06T12:52:13.481Z,2040
2017-07-06T12:53:13.452Z,2108
2017-07-06T12:54:13.152Z,2068
2017-07-06T12:55:13.468Z,2096
2017-07-06T12:56:13.442Z,2060
2017-07-06T12:57:13.433Z,2036
2017-07-06T12:58:13.433Z,1980
2017-07-06T12:59:13.435Z,2008
2017-07-06T13:00:13.433Z,1972
2017-07-06T13:01:13.412Z,1964
2017-07-06T13:02:13.739Z,2008
2017-07-06T13:03:13.410Z,2004
2017-07-06T13:04:13.570Z,2044
2017-07-06T13:05:13.384Z,2012
2017-07-06T13:06:13.701Z,1988
2017-07-06T13:07:13.376Z,1988
2017-07-06T13:08:13.598Z,2004
2017-07-06T13:09:13.700Z,2000
2017-07-06T13:10:13.369Z,2008
2017-07-06T13:11:13.667Z,1992
2017-07-06T13:12:13.533Z,1980
2017-07-06T13:13:13.666Z,1948
2017-07-06T13:14:13.346Z,1904
2017-07-06T13:15:13.022Z,1696
2017-07-06T13:16:13.629Z,1808
2017-07-06T13:17:13.652Z,1760
2017-07-06T13:18:13.675Z,1640
2017-07-06T13:19:13.299Z,1692
2017-07-06T13:20:13.399Z,1880
2017-07-06T13:21:13.286Z,1652
2017-07-06T13:22:13.325Z,1828
2017-07-06T13:23:13.578Z,1876
2017-07-06T13:24:12.938Z,1840
2017-07-06T13:25:12.951Z,1804
2017-07-06T13:26:13.293Z,1932
2017-07-06T13:27:13.581Z,1788
2017-07-06T13:28:12.969Z,1744
2017-07-06T13:29:13.573Z,1700
2017-07-06T13:30:13.542Z,1600
2017-07-06T13:31:13.255Z,1392
2017-07-06T13:32:13.493Z,1548
2017-07-06T13:33:13.191Z,1644
2017-07-06T13:34:13.173Z,1744
2017-07-06T13:35:13.168Z,1772
2017-07-06T13:36:13.191Z,1668
2017-07-06T13:37:13.162Z,1592